createdAt,value
2017-11-30T00:00:35.800Z,2.30
2017-11-30T00:03:03.389Z,2.30
2017-11-30T00:05:31.728Z,2.30
2017-11-30T00:07:59.302Z,2.30
2017-11-30T00:10:27.619Z,2.30
2017-11-30T00:12:55.178Z,2.30
2017-11-30T00:15:22.752Z,2.40
2017-11-30T00:17:50.329Z,2.40
2017-11-30T00:20:17.903Z,2.30
2017-11-30T00:22:45.474Z,2.40
2017-11-30T00:25:13.048Z,2.40
2017-11-30T00:27:40.618Z,2.40
2017-11-30T00:30:08.201Z,2.40
2017-11-30T00:32:35.768Z,2.40
2017-11-30T00:35:03.352Z,2.40
2017-11-30T00:37:30.935Z,2.40
2017-11-30T00:39:58.518Z,2.40
2017-11-30T00:42:38.705Z,2.40
2017-11-30T00:45:06.264Z,2.40
2017-11-30T00:47:33.845Z,2.40
2017-11-30T00:50:02.192Z,2.30
2017-11-30T00:52:29.772Z,2.30
2017-11-30T00:54:57.318Z,2.30
2017-11-30T00:57:24.911Z,2.40
2017-11-30T00:59:53.266Z,2.40
2017-11-30T01:02:20.834Z,2.40
2017-11-30T01:04:48.395Z,2.40
2017-11-30T01:07:15.992Z,2.40
2017-11-30T01:09:44.190Z,2.40
2017-11-30T01:12:12.537Z,2.40
2017-11-30T01:14:40.123Z,2.40
2017-11-30T01:17:08.641Z,2.40
2017-11-30T01:19:36.222Z,2.40
2017-11-30T01:22:04.550Z,2.40
2017-11-30T01:24:32.092Z,2.30
2017-11-30T01:26:59.663Z,2.40
2017-11-30T01:29:27.994Z,2.40
2017-11-30T01:31:55.563Z,2.40
2017-11-30T01:34:23.134Z,2.40
2017-11-30T01:36:50.695Z,2.40
2017-11-30T01:39:18.248Z,2.40
2017-11-30T01:41:45.829Z,2.40
2017-11-30T01:44:13.373Z,2.40
2017-11-30T01:46:40.970Z,2.40
2017-11-30T01:49:08.513Z,2.30
2017-11-30T01:51:36.887Z,2.30
2017-11-30T01:54:04.445Z,2.30
2017-11-30T01:56:31.999Z,2.30
2017-11-30T01:58:59.576Z,2.30
2017-11-30T02:01:27.146Z,2.30
2017-11-30T02:03:54.708Z,2.30
2017-11-30T02:06:22.293Z,2.40
2017-11-30T02:08:49.861Z,2.30
2017-11-30T02:11:17.427Z,2.30
2017-11-30T02:13:45.013Z,2.30
2017-11-30T02:16:13.330Z,2.30
2017-11-30T02:18:40.923Z,2.30
2017-11-30T02:21:08.501Z,2.30
2017-11-30T02:23:36.073Z,2.30
2017-11-30T02:26:03.650Z,2.30
2017-11-30T02:28:31.227Z,2.20
2017-11-30T02:30:58.820Z,2.20
2017-11-30T02:33:26.417Z,2.20
2017-11-30T02:35:54.004Z,2.10
2017-11-30T02:38:21.583Z,2.10
2017-11-30T02:40:49.237Z,2.10
2017-11-30T02:43:16.803Z,2.00
2017-11-30T02:45:44.366Z,2.00
2017-11-30T02:48:12.718Z,1.90
2017-11-30T02:50:40.300Z,1.90
2017-11-30T02:53:07.908Z,1.80
2017-11-30T02:55:35.503Z,1.70
2017-11-30T02:58:03.066Z,1.60
2017-11-30T03:00:30.649Z,1.60
2017-11-30T03:02:58.972Z,1.40
2017-11-30T03:05:26.546Z,1.40
2017-11-30T03:07:54.863Z,1.30
2017-11-30T03:10:22.436Z,1.20
2017-11-30T03:12:49.993Z,1.20
2017-11-30T03:15:17.587Z,1.30
2017-11-30T03:17:45.161Z,1.30
2017-11-30T03:20:12.719Z,1.30
2017-11-30T03:22:41.046Z,1.30
2017-11-30T03:25:08.612Z,1.30
2017-11-30T03:27:36.954Z,1.30
2017-11-30T03:30:04.547Z,1.30
2017-11-30T03:32:32.874Z,1.30
2017-11-30T03:35:00.442Z,1.30
2017-11-30T03:37:28.773Z,1.40
2017-11-30T03:39:56.389Z,1.40
2017-11-30T03:42:23.934Z,1.40
2017-11-30T03:44:51.506Z,1.30
2017-11-30T03:47:19.098Z,1.20
2017-11-30T03:49:48.088Z,1.30
2017-11-30T03:52:16.445Z,1.30
2017-11-30T03:54:44.801Z,1.30
2017-11-30T03:57:13.130Z,1.40
2017-11-30T03:59:40.711Z,1.40
2017-11-30T04:02:08.293Z,1.50
2017-11-30T04:04:36.694Z,1.70
2017-11-30T04:07:04.257Z,1.70
2017-11-30T04:09:31.819Z,1.70
2017-11-30T04:12:00.185Z,1.60
2017-11-30T04:14:27.752Z,1.60
2017-11-30T04:16:55.341Z,1.60
2017-11-30T04:19:22.894Z,1.60
2017-11-30T04:21:50.447Z,1.70
2017-11-30T04:24:18.018Z,1.80
2017-11-30T04:26:46.391Z,1.90
2017-11-30T04:29:13.971Z,1.80
2017-11-30T04:31:41.548Z,1.90
2017-11-30T04:34:09.113Z,1.80
2017-11-30T04:36:36.673Z,1.80
2017-11-30T04:39:04.242Z,1.90
2017-11-30T04:41:31.843Z,1.80
2017-11-30T04:43:59.394Z,1.90
2017-11-30T04:46:27.748Z,1.90
2017-11-30T04:48:55.335Z,1.80
2017-11-30T04:51:24.530Z,1.80
2017-11-30T04:53:52.110Z,1.80
2017-11-30T04:56:20.128Z,1.90
2017-11-30T04:58:47.689Z,1.90
2017-11-30T05:01:15.246Z,2.00
2017-11-30T05:03:42.835Z,2.10
2017-11-30T05:06:11.453Z,2.20
2017-11-30T05:08:39.014Z,2.10
2017-11-30T05:11:06.624Z,2.10
2017-11-30T05:13:34.182Z,2.10
2017-11-30T05:16:02.633Z,2.10
2017-11-30T05:18:30.209Z,2.10
2017-11-30T05:20:58.287Z,2.10
2017-11-30T05:23:25.876Z,2.10
2017-11-30T05:25:53.514Z,2.10
2017-11-30T05:28:21.084Z,2.00
2017-11-30T05:30:48.683Z,2.10
2017-11-30T05:33:16.251Z,2.10
2017-11-30T05:35:44.587Z,2.10
2017-11-30T05:38:12.162Z,2.10
2017-11-30T05:40:39.721Z,2.00
2017-11-30T05:43:08.054Z,2.10
2017-11-30T05:45:35.644Z,2.10
2017-11-30T05:48:03.975Z,2.10
2017-11-30T05:50:31.553Z,2.10
2017-11-30T05:52:59.164Z,2.10
2017-11-30T05:55:26.708Z,2.10
2017-11-30T05:57:54.290Z,2.00
2017-11-30T06:00:21.870Z,2.00
2017-11-30T06:02:49.425Z,2.00
2017-11-30T06:05:17.032Z,2.00
2017-11-30T06:07:44.578Z,2.00
2017-11-30T06:10:12.175Z,2.00
2017-11-30T06:12:39.736Z,2.00
2017-11-30T06:15:07.333Z,2.00
2017-11-30T06:17:34.938Z,1.90
2017-11-30T06:20:03.291Z,2.00
2017-11-30T06:22:31.636Z,2.00
2017-11-30T06:24:59.975Z,1.90
2017-11-30T06:27:27.557Z,2.00
2017-11-30T06:29:55.152Z,1.90
2017-11-30T06:32:22.715Z,2.00
2017-11-30T06:34:51.061Z,2.00
2017-11-30T06:37:18.959Z,1.90
2017-11-30T06:39:46.524Z,2.00
2017-11-30T06:42:14.139Z,2.00
2017-11-30T06:44:41.725Z,2.00
2017-11-30T06:47:09.301Z,2.10
2017-11-30T06:49:38.379Z,2.00
2017-11-30T06:52:05.930Z,2.00
2017-11-30T06:54:34.269Z,2.10
2017-11-30T06:57:01.859Z,2.00
2017-11-30T06:59:29.472Z,2.00
2017-11-30T07:01:59.904Z,2.10
2017-11-30T07:04:27.476Z,2.10
2017-11-30T07:06:55.051Z,2.10
2017-11-30T07:09:22.625Z,2.10
2017-11-30T07:11:50.207Z,2.10
2017-11-30T07:14:17.779Z,2.10
2017-11-30T07:16:46.973Z,2.10
2017-11-30T07:19:15.513Z,2.10
2017-11-30T07:21:43.067Z,2.10
2017-11-30T07:24:10.646Z,2.10
2017-11-30T07:26:38.974Z,2.10
2017-11-30T07:29:06.532Z,2.10
2017-11-30T07:31:34.125Z,2.20
2017-11-30T07:34:03.446Z,2.20
2017-11-30T07:36:31.041Z,2.20
2017-11-30T07:38:59.373Z,2.20
2017-11-30T07:41:26.958Z,2.20
2017-11-30T07:43:54.523Z,2.30
2017-11-30T07:46:22.112Z,2.30
2017-11-30T07:48:49.671Z,2.30
2017-11-30T07:51:17.268Z,2.30
2017-11-30T07:53:44.853Z,2.20
2017-11-30T07:56:12.420Z,2.20
2017-11-30T07:58:40.735Z,2.20
2017-11-30T08:01:08.288Z,2.20
2017-11-30T08:03:35.851Z,2.30
2017-11-30T08:06:03.464Z,2.30
2017-11-30T08:08:31.039Z,2.40
2017-11-30T08:10:59.388Z,2.40
2017-11-30T08:13:27.722Z,2.40
2017-11-30T08:15:55.893Z,2.30
2017-11-30T08:18:23.448Z,2.40
2017-11-30T08:20:51.923Z,2.40
2017-11-30T08:23:19.483Z,2.40
2017-11-30T08:25:47.055Z,2.40
2017-11-30T08:28:14.622Z,2.50
2017-11-30T08:30:42.208Z,2.50
2017-11-30T08:33:09.792Z,2.50
2017-11-30T08:35:37.366Z,2.50
2017-11-30T08:38:04.952Z,2.60
2017-11-30T08:40:32.561Z,2.70
2017-11-30T08:43:00.903Z,2.60
2017-11-30T08:45:30.526Z,2.60
2017-11-30T08:47:58.099Z,2.70
2017-11-30T08:50:25.694Z,2.70
2017-11-30T08:52:53.537Z,2.70
2017-11-30T08:55:22.068Z,2.70
2017-11-30T08:57:49.618Z,2.60
2017-11-30T09:00:17.215Z,2.70
2017-11-30T09:02:44.786Z,2.70
2017-11-30T09:05:13.109Z,2.70
2017-11-30T09:07:40.694Z,2.70
2017-11-30T09:10:09.034Z,2.70
2017-11-30T09:12:37.365Z,2.60
2017-11-30T09:15:04.947Z,2.60
2017-11-30T09:17:33.283Z,2.70
2017-11-30T09:20:00.853Z,2.70
2017-11-30T09:22:28.417Z,2.70
2017-11-30T09:24:56.747Z,2.80
2017-11-30T09:27:24.297Z,2.80
2017-11-30T09:29:51.883Z,2.80
2017-11-30T09:32:20.263Z,2.90
2017-11-30T09:34:47.854Z,2.80
2017-11-30T09:37:15.403Z,2.90
2017-11-30T09:39:42.957Z,2.90
2017-11-30T09:42:10.502Z,2.90
2017-11-30T09:44:38.062Z,2.90
2017-11-30T09:47:06.402Z,3.00
2017-11-30T09:49:34.111Z,3.00
2017-11-30T09:52:01.687Z,3.10
2017-11-30T09:54:30.012Z,3.20
2017-11-30T09:56:57.943Z,3.20
2017-11-30T09:59:25.519Z,3.20
2017-11-30T10:01:53.094Z,3.30
2017-11-30T10:04:20.646Z,3.40
2017-11-30T10:06:48.211Z,3.50
2017-11-30T10:09:15.755Z,3.50
2017-11-30T10:11:43.319Z,3.60
2017-11-30T10:14:11.678Z,3.80
2017-11-30T10:16:39.257Z,3.80
2017-11-30T10:19:06.831Z,3.90
2017-11-30T10:21:34.443Z,4.10
2017-11-30T10:24:02.002Z,4.20
2017-11-30T10:26:29.887Z,4.30
2017-11-30T10:28:58.523Z,4.20
2017-11-30T10:31:26.162Z,4.20
2017-11-30T10:33:54.716Z,4.20
2017-11-30T10:36:23.395Z,4.30
2017-11-30T10:38:51.085Z,4.30
2017-11-30T10:41:19.569Z,4.30
2017-11-30T10:43:47.558Z,4.30
2017-11-30T10:46:16.568Z,4.60
2017-11-30T10:48:44.155Z,4.50
2017-11-30T10:51:12.672Z,4.50
2017-11-30T10:53:41.034Z,4.30
2017-11-30T10:56:08.603Z,4.30
2017-11-30T10:58:36.929Z,4.20
2017-11-30T11:01:04.549Z,4.20
2017-11-30T11:03:32.142Z,4.20
2017-11-30T11:05:59.728Z,4.20
2017-11-30T11:08:27.269Z,4.20
2017-11-30T11:10:54.834Z,4.20
2017-11-30T11:13:23.185Z,4.20
2017-11-30T11:15:51.526Z,4.20
2017-11-30T11:18:19.879Z,4.10
2017-11-30T11:20:47.447Z,4.10
2017-11-30T11:23:15.018Z,4.00
2017-11-30T11:25:42.590Z,4.10
2017-11-30T11:28:10.189Z,4.10
2017-11-30T11:30:37.779Z,4.20
2017-11-30T11:33:05.407Z,4.20
2017-11-30T11:35:33.116Z,4.30
2017-11-30T11:38:00.965Z,4.40
2017-11-30T11:40:28.862Z,4.40
2017-11-30T11:42:56.618Z,4.40
2017-11-30T11:45:25.254Z,4.40
2017-11-30T11:47:52.830Z,4.20
2017-11-30T11:50:21.159Z,4.30
2017-11-30T11:52:49.530Z,4.30
2017-11-30T11:55:17.134Z,4.30
2017-11-30T11:57:44.686Z,4.30
2017-11-30T12:00:12.288Z,4.30
2017-11-30T12:02:39.873Z,4.40
2017-11-30T12:05:07.470Z,4.40
2017-11-30T12:07:35.044Z,4.40
2017-11-30T12:10:02.609Z,4.70
2017-11-30T12:12:32.834Z,5.20
2017-11-30T12:15:00.409Z,5.10
2017-11-30T12:17:27.982Z,5.20
2017-11-30T12:19:55.536Z,5.50
2017-11-30T12:22:23.134Z,5.30
2017-11-30T12:24:50.697Z,5.40
2017-11-30T12:27:18.292Z,5.20
2017-11-30T12:29:45.879Z,5.20
2017-11-30T12:32:13.478Z,5.10
2017-11-30T12:34:41.039Z,5.10
2017-11-30T12:37:08.614Z,5.00
2017-11-30T12:39:36.183Z,5.00
2017-11-30T12:42:03.793Z,4.90
2017-11-30T12:44:31.363Z,4.90
2017-11-30T12:46:59.697Z,4.60
2017-11-30T12:49:27.294Z,4.60
2017-11-30T12:51:54.843Z,4.60
2017-11-30T12:54:23.210Z,4.80
2017-11-30T12:56:50.799Z,4.80
2017-11-30T12:59:18.386Z,4.90
2017-11-30T13:01:46.793Z,4.70
2017-11-30T13:04:15.126Z,4.70
2017-11-30T13:06:42.726Z,4.70
2017-11-30T13:09:10.292Z,4.70
2017-11-30T13:11:38.630Z,4.70
2017-11-30T13:14:06.259Z,4.70
2017-11-30T13:16:33.837Z,4.90
2017-11-30T13:19:01.462Z,4.90
2017-11-30T13:21:29.831Z,5.00
2017-11-30T13:23:58.178Z,5.00
2017-11-30T13:26:26.502Z,5.00
2017-11-30T13:28:54.948Z,5.20
2017-11-30T13:31:22.720Z,5.10
2017-11-30T13:33:50.360Z,5.10
2017-11-30T13:36:17.920Z,5.20
2017-11-30T13:38:46.285Z,5.30
2017-11-30T13:41:14.605Z,5.00
2017-11-30T13:43:42.212Z,4.90
2017-11-30T13:46:10.627Z,4.70
2017-11-30T13:48:39.667Z,4.70
2017-11-30T13:51:07.988Z,4.60
2017-11-30T13:53:35.574Z,4.60
2017-11-30T13:56:03.158Z,4.60
2017-11-30T13:58:31.693Z,4.60
2017-11-30T14:00:59.324Z,4.50
2017-11-30T14:03:26.872Z,4.40
2017-11-30T14:05:54.470Z,4.50
2017-11-30T14:08:22.157Z,4.40
2017-11-30T14:10:49.698Z,4.40
2017-11-30T14:13:17.290Z,4.30
2017-11-30T14:15:44.863Z,4.30
2017-11-30T14:18:13.168Z,4.30
2017-11-30T14:20:40.765Z,4.30
2017-11-30T14:23:08.574Z,4.30
2017-11-30T14:25:36.154Z,4.20
2017-11-30T14:28:04.508Z,4.20
2017-11-30T14:30:32.079Z,4.20
2017-11-30T14:33:00.005Z,4.20
2017-11-30T14:35:28.351Z,4.10
2017-11-30T14:37:56.736Z,4.10
2017-11-30T14:40:26.013Z,4.10
2017-11-30T14:42:54.579Z,4.10
2017-11-30T14:45:22.546Z,4.10
2017-11-30T14:47:50.156Z,4.10
2017-11-30T14:50:17.748Z,4.10
2017-11-30T14:52:46.062Z,4.00
2017-11-30T14:55:14.970Z,4.00
2017-11-30T14:57:42.912Z,4.00
2017-11-30T15:00:10.521Z,4.00
2017-11-30T15:02:38.080Z,3.90
2017-11-30T15:05:05.642Z,3.90
2017-11-30T15:07:33.989Z,3.90
2017-11-30T15:10:01.576Z,3.80
2017-11-30T15:12:30.618Z,3.70
2017-11-30T15:14:58.959Z,3.70
2017-11-30T15:17:27.322Z,3.70
2017-11-30T15:19:54.903Z,3.70
2017-11-30T15:22:22.592Z,3.70
2017-11-30T15:24:50.149Z,3.80
2017-11-30T15:27:17.716Z,3.90
2017-11-30T15:29:45.328Z,3.80
2017-11-30T15:32:13.557Z,3.70
2017-11-30T15:34:41.914Z,3.50
2017-11-30T15:37:09.529Z,3.50
2017-11-30T15:39:37.870Z,3.50
2017-11-30T15:42:06.250Z,3.50
2017-11-30T15:44:34.269Z,3.40
2017-11-30T15:47:02.721Z,3.40
2017-11-30T15:49:31.005Z,3.40
2017-11-30T15:51:58.576Z,3.30
2017-11-30T15:54:26.163Z,3.30
2017-11-30T15:56:53.855Z,3.40
2017-11-30T15:59:21.427Z,3.40
2017-11-30T16:01:49.011Z,3.40
2017-11-30T16:04:17.341Z,3.30
2017-11-30T16:06:45.668Z,3.30
2017-11-30T16:09:14.308Z,3.30
2017-11-30T16:11:43.060Z,3.20
2017-11-30T16:14:10.613Z,3.20
2017-11-30T16:16:38.953Z,3.20
2017-11-30T16:19:06.494Z,3.10
2017-11-30T16:21:34.674Z,3.10
2017-11-30T16:24:02.242Z,3.10
2017-11-30T16:26:29.815Z,3.20
2017-11-30T16:28:58.132Z,3.10
2017-11-30T16:31:25.690Z,3.10
2017-11-30T16:33:53.234Z,3.20
2017-11-30T16:36:20.837Z,3.20
2017-11-30T16:38:48.393Z,3.10
2017-11-30T16:41:16.733Z,3.10
2017-11-30T16:43:44.309Z,3.10
2017-11-30T16:46:11.880Z,3.10
2017-11-30T16:48:39.468Z,3.10
2017-11-30T16:51:07.019Z,3.10
2017-11-30T16:53:34.611Z,3.10
2017-11-30T16:56:23.661Z,3.10
2017-11-30T16:58:51.228Z,3.10
2017-11-30T17:01:18.818Z,3.10
2017-11-30T17:03:46.379Z,3.10
2017-11-30T17:06:13.941Z,3.00
2017-11-30T17:08:41.551Z,2.90
2017-11-30T17:11:09.112Z,2.90
2017-11-30T17:13:36.692Z,2.90
2017-11-30T17:16:04.302Z,2.90
2017-11-30T17:18:31.853Z,2.90
2017-11-30T17:20:59.432Z,2.90
2017-11-30T17:23:27.753Z,2.80
2017-11-30T17:25:55.327Z,2.80
2017-11-30T17:28:22.895Z,2.90
2017-11-30T17:30:50.597Z,2.80
2017-11-30T17:33:18.971Z,2.90
2017-11-30T17:35:46.750Z,2.80
2017-11-30T17:41:14.283Z,2.80
2017-11-30T17:43:42.091Z,2.70
2017-11-30T17:46:10.135Z,2.70
2017-11-30T17:48:39.351Z,2.60
2017-11-30T17:51:06.992Z,2.70
2017-11-30T17:53:34.561Z,2.60
2017-11-30T17:56:03.804Z,2.60
2017-11-30T17:58:34.416Z,2.60
2017-11-30T18:01:02.816Z,2.60
2017-11-30T18:03:32.209Z,2.60
2017-11-30T18:06:03.382Z,2.60
2017-11-30T18:08:32.304Z,2.60
2017-11-30T18:11:02.071Z,2.60
2017-11-30T18:13:30.717Z,2.60
2017-11-30T18:15:59.193Z,2.50
2017-11-30T18:18:26.742Z,2.50
2017-11-30T18:20:54.333Z,2.50
2017-11-30T18:23:23.199Z,2.50
2017-11-30T18:25:51.724Z,2.50
2017-11-30T18:28:19.277Z,2.50
2017-11-30T18:30:46.854Z,2.50
2017-11-30T18:33:15.177Z,2.60
2017-11-30T18:35:42.751Z,2.50
2017-11-30T18:38:10.337Z,2.50
2017-11-30T18:40:37.903Z,2.50
2017-11-30T18:43:05.497Z,2.50
2017-11-30T18:45:33.059Z,2.50
2017-11-30T18:48:00.645Z,2.40
2017-11-30T18:50:28.229Z,2.40
2017-11-30T18:52:55.782Z,2.40
2017-11-30T18:55:23.383Z,2.40
2017-11-30T18:57:51.734Z,2.40
2017-11-30T19:00:19.337Z,2.40
2017-11-30T19:02:47.767Z,2.50
2017-11-30T19:05:16.130Z,2.50
2017-11-30T19:07:43.784Z,2.40
2017-11-30T19:10:11.353Z,2.40
2017-11-30T19:12:39.535Z,2.40
2017-11-30T19:15:07.723Z,2.40
2017-11-30T19:17:36.608Z,2.40
2017-11-30T19:20:04.243Z,2.50
2017-11-30T19:22:32.030Z,2.50
2017-11-30T19:24:59.765Z,2.50
2017-11-30T19:27:27.349Z,2.50
2017-11-30T19:29:55.057Z,2.50
2017-11-30T19:32:23.396Z,2.50
2017-11-30T19:34:52.278Z,2.50
2017-11-30T19:37:20.120Z,2.50
2017-11-30T19:39:48.078Z,2.50
2017-11-30T19:42:15.897Z,2.50
2017-11-30T19:44:43.508Z,2.50
2017-11-30T19:47:12.021Z,2.50
2017-11-30T19:49:40.911Z,2.40
2017-11-30T19:52:08.653Z,2.40
2017-11-30T19:54:36.252Z,2.40
2017-11-30T19:57:03.953Z,2.30
2017-11-30T19:59:31.601Z,2.30
2017-11-30T20:01:59.189Z,2.20
2017-11-30T20:04:27.681Z,2.20
2017-11-30T20:06:55.263Z,2.20
2017-11-30T20:09:22.837Z,2.20
2017-11-30T20:11:51.451Z,2.20
2017-11-30T20:14:19.272Z,2.20
2017-11-30T20:16:46.887Z,2.20
2017-11-30T20:19:14.882Z,2.20
2017-11-30T20:21:42.540Z,2.20
2017-11-30T20:24:11.086Z,2.00
2017-11-30T20:26:38.680Z,2.00
2017-11-30T20:29:08.553Z,2.10
2017-11-30T20:31:37.472Z,2.00
2017-11-30T20:34:05.118Z,2.10
2017-11-30T20:36:32.659Z,2.00
2017-11-30T20:39:00.377Z,2.00
2017-11-30T20:41:29.535Z,2.00
2017-11-30T20:43:57.788Z,2.00
2017-11-30T20:46:26.602Z,2.00
2017-11-30T20:48:54.209Z,2.00
2017-11-30T20:51:21.761Z,2.00
2017-11-30T20:53:50.090Z,2.00
2017-11-30T20:56:17.808Z,2.00
2017-11-30T20:58:45.440Z,2.00
2017-11-30T21:01:13.239Z,2.00
2017-11-30T21:03:41.791Z,2.00
2017-11-30T21:06:09.376Z,2.10
2017-11-30T21:08:36.998Z,2.00
2017-11-30T21:11:04.646Z,2.10
2017-11-30T21:13:32.210Z,2.00
2017-11-30T21:15:59.866Z,2.00
2017-11-30T21:18:27.527Z,2.00
2017-11-30T21:20:55.088Z,2.00
2017-11-30T21:23:22.755Z,2.00
2017-11-30T21:25:50.512Z,2.00
2017-11-30T21:28:18.091Z,2.10
2017-11-30T21:30:46.417Z,2.00
2017-11-30T21:33:14.178Z,2.00
2017-11-30T21:35:41.937Z,1.90
2017-11-30T21:38:09.623Z,1.90
2017-11-30T21:40:37.892Z,1.70
2017-11-30T21:43:05.709Z,1.60
2017-11-30T21:45:33.424Z,1.60
2017-11-30T21:48:01.059Z,1.60
2017-11-30T21:50:30.137Z,1.30
2017-11-30T21:52:57.874Z,1.30
2017-11-30T21:55:25.790Z,1.40
2017-11-30T21:57:54.231Z,1.50
2017-11-30T22:00:22.005Z,1.50
2017-11-30T22:02:49.557Z,1.60
2017-11-30T22:05:17.384Z,1.60
2017-11-30T22:07:44.964Z,1.60
2017-11-30T22:10:15.546Z,1.70
2017-11-30T22:12:44.837Z,1.60
2017-11-30T22:15:14.639Z,1.70
2017-11-30T22:17:42.514Z,1.70
2017-11-30T22:20:10.071Z,1.70
2017-11-30T22:22:37.630Z,1.70
2017-11-30T22:25:05.202Z,1.70
2017-11-30T22:27:32.769Z,1.70
2017-11-30T22:30:00.322Z,1.80
2017-11-30T22:32:27.884Z,1.80
2017-11-30T22:34:55.449Z,1.80
2017-11-30T22:37:23.001Z,1.80
2017-11-30T22:39:50.563Z,1.80
2017-11-30T22:42:18.128Z,1.80
2017-11-30T22:44:45.720Z,1.80
2017-11-30T22:47:13.305Z,1.80
2017-11-30T22:49:41.646Z,1.80
2017-11-30T22:52:09.973Z,1.70
2017-11-30T22:54:37.536Z,1.70
2017-11-30T22:57:05.102Z,1.70
2017-11-30T22:59:32.681Z,1.70
2017-11-30T23:02:00.228Z,1.70
2017-11-30T23:04:27.788Z,1.70
2017-11-30T23:06:55.334Z,1.70
2017-11-30T23:09:22.908Z,1.70
2017-11-30T23:11:50.582Z,1.80
2017-11-30T23:14:18.153Z,1.70
2017-11-30T23:16:45.711Z,1.70
2017-11-30T23:19:13.927Z,1.80
2017-11-30T23:21:41.501Z,1.80
2017-11-30T23:24:09.116Z,1.80
2017-11-30T23:26:37.469Z,1.90
2017-11-30T23:29:05.034Z,1.80
2017-11-30T23:31:32.625Z,1.90
2017-11-30T23:34:00.970Z,1.90
2017-11-30T23:36:28.535Z,1.90
2017-11-30T23:38:56.175Z,1.90
2017-11-30T23:41:23.746Z,1.90
2017-11-30T23:43:51.306Z,1.90
2017-11-30T23:46:18.849Z,2.00
2017-11-30T23:48:46.407Z,2.00
2017-11-30T23:51:13.973Z,2.00
2017-11-30T23:53:41.544Z,2.00
2017-11-30T23:56:09.106Z,2.10
2017-11-30T23:58:36.649Z,2.10
